Time;durP1;ratioP1;P1;durP2;ratioP2;P2;SDS_P1;SDS_P2;PMS_P1;PMS_P2;Temp;Humidity;BMP_temperature;BMP_pressure;BME280_temperature;BME280_humidity;BME280_pressure;Samples;Min_cycle;Max_cycle;Signal;HPM_P1;HPM_P2
2022/04/27 00:00:03;;;;;;;15.37;11.57;;;8.10;16.10;;;;;;5115341;28;20191;-71
2022/04/27 00:02:30;;;;;;;15.23;10.80;;;8.20;11.80;;;;;;5115309;28;20190;-70
2022/04/27 00:04:57;;;;;;;12.97;10.80;;;8.20;9.30;;;;;;5115238;28;20182;-71
2022/04/27 00:07:22;;;;;;;13.03;9.57;;;8.30;5.20;;;;;;5115208;28;20233;-69
2022/04/27 00:09:48;;;;;;;11.90;9.93;;;8.30;4.00;;;;;;5115271;28;20160;-70
2022/04/27 00:12:13;;;;;;;14.93;10.17;;;8.40;2.50;;;;;;5115321;28;20164;-71
2022/04/27 00:14:39;;;;;;;16.10;10.10;;;8.50;1.00;;;;;;5115159;28;20163;-70
2022/04/27 00:17:05;;;;;;;12.27;9.80;;;8.50;1.00;;;;;;5114972;28;20622;-70
2022/04/27 00:19:30;;;;;;;13.60;10.07;;;8.50;1.00;;;;;;5115126;28;20171;-70
2022/04/27 00:21:56;;;;;;;13.07;9.70;;;8.50;1.00;;;;;;5115137;28;20167;-71
2022/04/27 00:24:22;;;;;;;15.63;10.23;;;8.50;1.00;;;;;;5114960;28;20167;-70
2022/04/27 00:26:48;;;;;;;13.47;9.93;;;8.50;1.00;;;;;;5113945;28;20319;-70
2022/04/27 00:29:13;;;;;;;15.17;10.00;;;8.50;1.00;;;;;;5114913;28;20190;-70
2022/04/27 00:31:39;;;;;;;15.93;9.83;;;8.60;1.00;;;;;;5114523;28;20511;-70
2022/04/27 00:34:04;;;;;;;13.27;9.53;;;8.60;1.00;;;;;;5114836;28;20183;-70
2022/04/27 00:36:31;;;;;;;16.50;9.40;;;8.70;1.00;;;;;;5114645;28;20545;-70
2022/04/27 00:39:00;;;;;;;15.60;9.50;;;8.70;1.00;;;;;;5114686;28;20229;-70
2022/04/27 00:41:25;;;;;;;14.80;9.33;;;8.70;1.00;;;;;;5114804;28;20175;-70
2022/04/27 00:43:51;;;;;;;10.73;8.90;;;8.80;1.00;;;;;;5114461;28;20248;-70
2022/04/27 00:46:17;;;;;;;14.43;10.93;;;8.80;1.00;;;;;;5114230;28;20543;-70
2022/04/27 00:48:42;;;;;;;12.97;8.80;;;8.90;1.00;;;;;;5114450;28;20171;-71
2022/04/27 00:51:12;;;;;;;13.93;9.37;;;8.80;1.00;;;;;;5114531;28;20216;-70
2022/04/27 00:53:40;;;;;;;13.40;8.33;;;8.70;1.00;;;;;;5114439;28;20179;-70
2022/04/27 00:56:06;;;;;;;10.30;8.67;;;8.70;1.00;;;;;;5114300;28;20573;-70
2022/04/27 00:58:32;;;;;;;13.63;9.20;;;8.60;1.00;;;;;;5114053;28;20215;-70
2022/04/27 01:00:58;;;;;;;13.13;9.40;;;8.60;1.00;;;;;;5114219;28;20171;-70
2022/04/27 01:03:23;;;;;;;13.63;9.07;;;8.60;1.00;;;;;;5114309;28;20168;-70
2022/04/27 01:05:49;;;;;;;12.30;8.97;;;8.60;1.00;;;;;;5114166;28;20230;-71
2022/04/27 01:08:22;;;;;;;10.23;8.97;;;8.70;1.00;;;;;;5114269;28;20626;-71
2022/04/27 01:10:49;;;;;;;13.47;8.93;;;8.80;1.00;;;;;;5114443;28;20174;-70
2022/04/27 01:13:16;;;;;;;15.67;9.27;;;8.80;1.00;;;;;;5113888;28;20755;-70
2022/04/27 01:15:43;;;;;;;13.13;8.63;;;8.90;1.00;;;;;;5113565;28;20182;-70
2022/04/27 01:18:09;;;;;;;13.57;8.97;;;8.80;1.00;;;;;;5113920;28;20171;-70
2022/04/27 01:20:38;;;;;;;15.30;8.87;;;8.90;1.00;;;;;;5114013;28;20187;-71
2022/04/27 01:23:05;;;;;;;13.73;8.73;;;8.90;1.00;;;;;;5113845;28;20232;-70
2022/04/27 01:25:48;;;;;;;10.43;8.93;;;8.80;1.00;;;;;;5113768;28;20312;-70
2022/04/27 01:28:15;;;;;;;10.97;8.97;;;8.80;1.00;;;;;;5113735;28;20666;-70
2022/04/27 01:30:41;;;;;;;12.73;8.93;;;8.60;1.00;;;;;;5113486;28;20191;-70
2022/04/27 01:33:08;;;;;;;14.27;9.00;;;8.60;1.00;;;;;;5113674;28;20222;-70
2022/04/27 01:35:33;;;;;;;13.97;9.00;;;8.50;1.00;;;;;;5113485;28;20174;-70
2022/04/27 01:38:03;;;;;;;14.47;9.57;;;8.50;1.00;;;;;;5113560;28;20167;-70
2022/04/27 01:40:29;;;;;;;10.40;8.43;;;8.50;1.00;;;;;;5113530;28;20194;-70
2022/04/27 01:42:54;;;;;;;15.70;9.47;;;8.30;1.00;;;;;;5113184;28;20199;-70
2022/04/27 01:45:20;;;;;;;13.90;8.93;;;8.20;1.00;;;;;;5113290;28;20186;-70
2022/04/27 01:47:45;;;;;;;10.83;8.47;;;8.20;1.00;;;;;;5113863;28;20236;-70
2022/04/27 01:50:11;;;;;;;14.43;9.27;;;8.10;1.00;;;;;;5113583;28;20175;-70
2022/04/27 01:55:21;;;;;;;12.33;9.53;;;7.90;1.00;;;;;;5113617;28;20193;-70
2022/04/27 01:57:48;;;;;;;13.93;9.50;;;7.90;1.00;;;;;;5113086;28;20231;-70
2022/04/27 02:00:14;;;;;;;18.53;11.07;;;7.90;4.10;;;;;;5113496;28;20163;-71
2022/04/27 02:02:40;;;;;;;17.03;10.70;;;7.90;7.30;;;;;;5113549;28;20183;-70
2022/04/27 02:05:07;;;;;;;15.10;9.93;;;7.80;7.10;;;;;;5113350;28;20167;-70
2022/04/27 02:07:32;;;;;;;15.37;11.23;;;7.70;12.30;;;;;;5113335;28;20708;-70
2022/04/27 02:09:58;;;;;;;19.47;11.40;;;7.70;16.50;;;;;;5113205;28;20167;-70
2022/04/27 02:12:23;;;;;;;14.93;10.50;;;7.70;16.40;;;;;;5113283;28;20175;-70
2022/04/27 02:14:49;;;;;;;12.87;10.00;;;7.60;17.40;;;;;;5113409;28;20642;-70
2022/04/27 02:17:15;;;;;;;16.57;11.00;;;7.70;17.80;;;;;;5113399;28;20182;-70
2022/04/27 02:19:41;;;;;;;19.13;11.53;;;7.70;16.20;;;;;;5113357;28;20206;-70
2022/04/27 02:22:06;;;;;;;13.70;10.20;;;7.70;16.60;;;;;;5113380;28;20187;-70
2022/04/27 02:24:32;;;;;;;15.77;11.00;;;7.60;17.50;;;;;;5112956;28;20179;-70
2022/04/27 02:26:58;;;;;;;15.60;10.50;;;7.60;19.90;;;;;;5112770;28;20286;-69
2022/04/27 02:29:23;;;;;;;14.47;10.97;;;7.50;21.50;;;;;;5113346;28;20201;-70
2022/04/27 02:31:50;;;;;;;15.43;10.80;;;7.50;22.00;;;;;;5113300;28;20171;-70
2022/04/27 02:34:16;;;;;;;16.53;11.20;;;7.50;24.80;;;;;;5112940;28;20677;-70
2022/04/27 02:36:42;;;;;;;17.20;11.13;;;7.50;26.10;;;;;;5113262;28;20175;-70
2022/04/27 02:39:07;;;;;;;15.07;11.27;;;7.50;23.60;;;;;;5113030;28;20267;-70
2022/04/27 02:41:33;;;;;;;15.10;11.10;;;7.50;23.30;;;;;;5112575;28;20218;-70
2022/04/27 02:43:59;;;;;;;14.70;11.80;;;7.50;23.90;;;;;;5113274;28;20564;-70
2022/04/27 02:46:24;;;;;;;14.87;11.40;;;7.40;27.10;;;;;;5113023;28;20241;-70
2022/04/27 02:51:49;;;;;;;16.53;11.73;;;7.30;32.80;;;;;;5116839;28;20588;-70
2022/04/27 02:54:23;;;;;;;17.23;11.40;;;7.20;37.50;;;;;;5116514;28;20657;-70
2022/04/27 02:56:49;;;;;;;15.10;11.93;;;7.20;40.80;;;;;;5116259;28;20215;-70
2022/04/27 02:59:15;;;;;;;21.97;13.00;;;7.20;43.20;;;;;;5116923;28;20187;-70
2022/04/27 03:01:41;;;;;;;16.47;11.20;;;7.10;46.00;;;;;;5116730;28;20230;-70
2022/04/27 03:04:08;;;;;;;13.90;11.27;;;7.10;48.20;;;;;;5116558;28;20191;-70
2022/04/27 03:06:33;;;;;;;13.47;11.67;;;7.10;49.00;;;;;;5116323;28;20217;-70
2022/04/27 03:08:59;;;;;;;16.50;12.03;;;7.10;50.30;;;;;;5116629;28;20247;-70
2022/04/27 03:11:25;;;;;;;18.73;12.27;;;7.10;50.10;;;;;;5116050;28;20167;-70
2022/04/27 03:13:50;;;;;;;20.13;12.07;;;7.10;50.60;;;;;;5116381;28;20172;-69
2022/04/27 03:16:16;;;;;;;19.13;12.67;;;7.00;53.90;;;;;;5116222;28;20532;-69
2022/04/27 03:18:42;;;;;;;18.03;12.87;;;7.00;55.20;;;;;;5115836;28;20271;-69
2022/04/27 03:21:09;;;;;;;19.57;13.00;;;7.10;55.10;;;;;;5115875;28;20170;-69
2022/04/27 03:23:35;;;;;;;16.27;12.53;;;7.00;54.20;;;;;;5115969;28;20168;-69
2022/04/27 03:26:00;;;;;;;18.47;12.73;;;7.00;54.00;;;;;;5115485;28;20558;-69
2022/04/27 03:28:26;;;;;;;20.33;12.93;;;7.00;54.10;;;;;;5116192;28;20159;-69
2022/04/27 03:30:52;;;;;;;23.67;13.37;;;7.00;54.40;;;;;;5116125;28;20673;-70
2022/04/27 03:33:18;;;;;;;19.17;13.03;;;7.00;56.50;;;;;;5115807;28;20198;-69
2022/04/27 03:35:44;;;;;;;18.23;14.13;;;7.00;58.10;;;;;;5115756;28;20175;-69
2022/04/27 03:38:10;;;;;;;21.07;14.20;;;7.00;60.10;;;;;;5115636;28;20189;-71
2022/04/27 03:40:36;;;;;;;19.90;13.37;;;7.00;60.70;;;;;;5115415;28;20163;-71
2022/04/27 03:43:02;;;;;;;19.30;13.37;;;7.00;59.50;;;;;;5115634;28;20675;-70
2022/04/27 03:45:28;;;;;;;25.10;14.77;;;7.00;57.90;;;;;;5115563;28;20630;-70
2022/04/27 03:47:54;;;;;;;21.63;14.03;;;7.00;56.10;;;;;;5115274;28;20223;-71
2022/04/27 03:50:20;;;;;;;18.07;13.87;;;7.00;53.80;;;;;;5115635;28;20628;-71
2022/04/27 03:52:46;;;;;;;22.13;14.03;;;7.00;56.50;;;;;;5115289;28;20172;-71
2022/04/27 03:55:12;;;;;;;21.53;14.60;;;6.90;57.70;;;;;;5114923;28;20163;-71
2022/04/27 03:57:38;;;;;;;18.90;12.40;;;6.90;60.10;;;;;;5096724;28;20572;-71
2022/04/27 04:00:08;;;;;;;18.73;13.80;;;6.90;61.60;;;;;;5115670;28;20175;-70
2022/04/27 04:02:34;;;;;;;22.97;14.27;;;6.90;64.10;;;;;;5113783;28;20262;-70
2022/04/27 04:04:59;;;;;;;22.17;14.53;;;6.80;64.10;;;;;;5115427;28;20260;-70
2022/04/27 04:07:25;;;;;;;21.80;15.07;;;6.90;64.10;;;;;;5115190;28;20264;-70
2022/04/27 04:09:50;;;;;;;21.23;14.27;;;6.90;65.90;;;;;;5114318;28;20245;-71
2022/04/27 04:12:16;;;;;;;23.60;14.50;;;6.90;67.60;;;;;;5114936;28;20167;-71
2022/04/27 04:14:42;;;;;;;26.30;15.53;;;6.80;67.10;;;;;;5114827;28;20202;-70
2022/04/27 04:17:08;;;;;;;17.37;14.00;;;6.80;68.10;;;;;;5114478;28;20171;-70
2022/04/27 04:19:33;;;;;;;23.90;15.53;;;6.80;70.10;;;;;;5114889;28;20167;-69
2022/04/27 04:21:59;;;;;;;27.63;15.07;;;6.70;69.40;;;;;;5114697;28;20691;-69
2022/04/27 04:24:26;;;;;;;24.97;15.13;;;6.80;71.10;;;;;;5113992;28;20178;-69
2022/04/27 04:29:36;;;;;;;24.63;16.40;;;7.00;68.50;;;;;;5115003;28;20254;-70
2022/04/27 04:32:01;;;;;;;28.53;16.57;;;6.90;64.50;;;;;;5114392;28;20262;-70
2022/04/27 04:34:27;;;;;;;24.00;16.30;;;6.90;65.60;;;;;;5114191;28;20187;-71
2022/04/27 04:36:53;;;;;;;24.03;16.63;;;6.90;66.70;;;;;;5113828;28;20171;-70
2022/04/27 04:39:19;;;;;;;25.03;16.50;;;6.90;68.60;;;;;;5113930;28;20594;-71
2022/04/27 04:41:45;;;;;;;24.33;16.47;;;7.00;72.60;;;;;;5113619;28;20633;-70
2022/04/27 04:44:10;;;;;;;28.93;17.30;;;7.10;75.10;;;;;;5114372;28;20167;-71
2022/04/27 04:46:36;;;;;;;27.97;16.50;;;7.30;78.20;;;;;;5113989;28;20222;-70
2022/04/27 04:49:02;;;;;;;27.23;16.63;;;7.50;73.70;;;;;;5114183;28;20171;-70
2022/04/27 04:51:27;;;;;;;26.43;16.20;;;7.80;65.80;;;;;;5113334;28;20179;-70
2022/04/27 04:53:53;;;;;;;23.83;16.00;;;8.20;58.40;;;;;;5113579;28;20623;-71
2022/04/27 04:56:19;;;;;;;34.30;17.80;;;8.40;45.20;;;;;;5113310;28;20634;-71
2022/04/27 04:58:45;;;;;;;28.40;15.17;;;8.90;28.70;;;;;;5113720;28;20245;-70
2022/04/27 05:01:10;;;;;;;27.47;15.27;;;9.30;15.00;;;;;;5113853;28;20175;-70
2022/04/27 05:03:38;;;;;;;22.10;14.77;;;9.80;1.00;;;;;;5095187;28;20274;-70
2022/04/27 05:06:04;;;;;;;23.97;14.37;;;10.10;1.00;;;;;;5112891;28;20214;-70
2022/04/27 05:08:29;;;;;;;22.30;13.43;;;10.60;1.00;;;;;;5113426;28;20186;-69
2022/04/27 05:10:55;;;;;;;26.53;14.53;;;10.90;1.00;;;;;;5113088;28;20281;-70
2022/04/27 05:13:20;;;;;;;20.93;13.60;;;11.30;1.00;;;;;;5112463;28;20261;-71
2022/04/27 05:15:47;;;;;;;18.33;13.37;;;11.80;1.00;;;;;;5113141;28;20163;-70
2022/04/27 05:18:13;;;;;;;22.67;12.50;;;12.30;99.90;;;;;;5112474;28;20227;-71
2022/04/27 05:20:38;;;;;;;20.67;13.53;;;12.50;1.00;;;;;;5112259;28;20250;-70
2022/04/27 05:23:05;;;;;;;19.13;13.13;;;12.90;99.90;;;;;;5113145;28;20213;-71
2022/04/27 05:25:33;;;;;;;28.40;13.80;;;13.30;1.00;;;;;;5112328;28;20174;-71
2022/04/27 05:27:59;;;;;;;19.13;13.33;;;14.10;1.00;;;;;;5111181;28;20206;-70
2022/04/27 05:33:08;;;;;;;20.77;14.70;;;15.20;1.00;;;;;;5112703;28;20215;-70
2022/04/27 05:35:41;;;;;;;21.40;13.53;;;15.40;99.90;;;;;;5112408;28;20262;-72
2022/04/27 05:38:08;;;;;;;19.57;12.40;;;16.00;64.90;;;;;;5112269;28;20186;-72
2022/04/27 05:40:34;;;;;;;20.33;13.47;;;15.80;1.00;;;;;;5111796;28;20175;-72
2022/04/27 05:43:01;;;;;;;15.40;12.47;;;15.40;74.70;;;;;;5112491;28;20641;-72
2022/04/27 05:45:26;;;;;;;18.47;13.30;;;14.80;40.80;;;;;;5111722;28;20232;-72
2022/04/27 05:47:52;;;;;;;18.13;12.17;;;14.40;30.40;;;;;;5112496;28;20174;-72
2022/04/27 05:50:17;;;;;;;14.90;12.50;;;13.90;99.90;;;;;;5111773;28;20190;-72
2022/04/27 05:52:52;;;;;;;17.37;12.20;;;13.80;99.90;;;;;;5111840;28;20164;-73
2022/04/27 05:55:19;;;;;;;17.13;13.07;;;13.30;1.00;;;;;;5111431;28;20182;-73
2022/04/27 05:57:44;;;;;;;17.07;12.40;;;13.60;1.00;;;;;;5112269;28;20219;-73
2022/04/27 06:00:11;;;;;;;13.43;12.03;;;14.00;99.90;;;;;;5092962;28;20232;-73
2022/04/27 06:02:38;;;;;;;15.27;12.27;;;14.30;1.00;;;;;;5111978;28;20171;-74
2022/04/27 06:05:05;;;;;;;16.07;12.30;;;14.60;1.00;;;;;;5111024;28;20274;-73
2022/04/27 06:07:31;;;;;;;20.70;13.03;;;13.90;64.90;;;;;;5111770;28;20246;-72
2022/04/27 06:09:56;;;;;;;18.20;12.53;;;12.80;1.00;;;;;;5112247;28;20174;-73
2022/04/27 06:12:25;;;;;;;14.70;11.83;;;13.30;99.90;;;;;;5111371;28;20228;-73
2022/04/27 06:14:51;;;;;;;18.17;12.43;;;14.10;1.00;;;;;;5111775;28;20607;-75
2022/04/27 06:17:17;;;;;;;15.37;11.70;;;14.60;1.00;;;;;;5111727;28;20167;-75
2022/04/27 06:19:43;;;;;;;16.30;11.57;;;14.70;99.90;;;;;;5111425;28;20186;-74
2022/04/27 06:22:09;;;;;;;14.73;11.70;;;14.50;99.90;;;;;;5112302;28;20175;-75
2022/04/27 06:24:34;;;;;;;18.73;11.77;;;15.00;99.90;;;;;;5112029;28;20627;-76
2022/04/27 06:27:00;;;;;;;15.87;11.40;;;16.10;1.00;;;;;;5116077;28;20225;-76
2022/04/27 06:29:25;;;;;;;14.67;11.63;;;17.20;1.00;;;;;;5115552;28;20672;-76
2022/04/27 06:31:51;;;;;;;12.77;10.73;;;16.90;1.00;;;;;;5116384;28;20167;-77
2022/04/27 06:34:17;;;;;;;12.23;11.00;;;16.60;1.00;;;;;;5115696;28;20504;-76
2022/04/27 06:36:42;;;;;;;13.47;10.50;;;17.00;99.90;;;;;;5115520;28;20634;-75
2022/04/27 06:39:12;;;;;;;14.90;10.63;;;17.00;99.90;;;;;;5116109;28;20205;-76
2022/04/27 06:41:38;;;;;;;12.87;10.70;;;17.10;99.90;;;;;;5115849;28;20163;-75
2022/04/27 06:44:03;;;;;;;13.17;10.53;;;16.90;99.90;;;;;;5116068;28;20183;-76
2022/04/27 06:46:29;;;;;;;12.40;10.43;;;17.40;99.90;;;;;;5114955;28;20202;-76
2022/04/27 06:48:55;;;;;;;13.80;10.32;;;18.10;99.90;;;;;;5115659;28;20622;-77
2022/04/27 06:51:21;;;;;;;12.40;9.77;;;18.20;99.90;;;;;;5115205;28;20191;-77
2022/04/27 06:53:47;;;;;;;12.35;10.00;;;18.90;99.90;;;;;;5115675;28;20217;-76
2022/04/27 06:56:16;;;;;;;10.30;9.25;;;19.00;99.90;;;;;;5114715;28;20213;-76
2022/04/27 06:58:41;;;;;;;10.88;9.82;;;18.40;99.90;;;;;;5115410;28;20591;-76
2022/04/27 07:01:07;;;;;;;10.80;9.02;;;17.50;99.90;;;;;;5105393;28;20266;-76
2022/04/27 07:03:33;;;;;;;11.75;9.48;;;16.80;99.90;;;;;;5112680;28;20634;-77
2022/04/27 07:06:00;;;;;;;11.37;9.33;;;17.30;99.90;;;;;;5114053;28;20217;-76
2022/04/27 07:08:27;;;;;;;11.53;9.87;;;16.90;99.90;;;;;;5114290;28;20254;-76
2022/04/27 07:10:53;;;;;;;12.23;9.73;;;16.50;99.90;;;;;;5113847;28;20661;-77
2022/04/27 07:13:18;;;;;;;12.50;9.77;;;16.60;99.90;;;;;;5114949;28;20180;-76
2022/04/27 07:15:44;;;;;;;11.30;9.75;;;17.00;99.90;;;;;;5113672;28;20175;-76
2022/04/27 07:18:10;;;;;;;12.90;8.93;;;17.40;99.90;;;;;;5113971;28;20624;-76
2022/04/27 07:20:35;;;;;;;13.50;9.55;;;18.50;99.90;;;;;;5106466;28;20175;-75
2022/04/27 07:23:01;;;;;;;12.18;9.00;;;18.10;99.90;;;;;;5113357;28;20258;-75
2022/04/27 07:25:26;;;;;;;11.63;9.45;;;18.40;99.90;;;;;;5114036;28;20178;-75
2022/04/27 07:27:52;;;;;;;11.00;9.43;;;18.30;99.90;;;;;;5114580;28;20203;-75
2022/04/27 07:30:18;;;;;;;10.02;8.52;;;19.00;99.90;;;;;;5096284;28;20565;-75
2022/04/27 07:32:45;;;;;;;9.68;8.65;;;19.10;99.90;;;;;;5113851;28;20191;-74
2022/04/27 07:35:11;;;;;;;10.80;9.30;;;19.20;99.90;;;;;;5097315;28;20308;-74
2022/04/27 07:37:38;;;;;;;12.20;9.20;;;20.30;99.90;;;;;;5113352;28;20171;-75
2022/04/27 07:40:06;;;;;;;9.70;8.70;;;21.60;99.90;;;;;;5113087;28;20262;-75
2022/04/27 07:42:32;;;;;;;9.38;8.18;;;20.50;99.90;;;;;;5113180;28;20172;-74
2022/04/27 07:44:58;;;;;;;9.98;8.05;;;20.20;99.90;;;;;;5114148;28;20175;-75
2022/04/27 07:47:24;;;;;;;9.35;8.10;;;20.10;99.90;;;;;;5113189;28;20703;-75
2022/04/27 07:49:49;;;;;;;8.43;7.63;;;20.40;99.90;;;;;;5111218;28;20171;-75
2022/04/27 07:52:15;;;;;;;9.55;8.65;;;18.80;99.90;;;;;;5112785;28;20214;-75
2022/04/27 07:54:41;;;;;;;9.15;8.07;;;18.30;99.90;;;;;;5114639;28;20683;-76
2022/04/27 07:57:07;;;;;;;9.38;6.97;;;19.00;99.90;;;;;;5113661;28;20226;-75
2022/04/27 07:59:32;;;;;;;10.13;8.20;;;19.00;99.90;;;;;;5114338;28;20172;-77
2022/04/27 08:01:58;;;;;;;12.43;7.88;;;19.10;99.90;;;;;;5114548;28;20167;-75
2022/04/27 08:04:23;;;;;;;10.65;7.93;;;19.30;99.90;;;;;;5114083;28;20254;-75
2022/04/27 08:06:50;;;;;;;9.75;7.70;;;20.50;99.90;;;;;;5114483;28;20562;-75
2022/04/27 08:09:16;;;;;;;11.63;7.05;;;21.20;99.90;;;;;;5114261;28;20174;-76
2022/04/27 08:11:42;;;;;;;10.40;7.18;;;21.90;99.90;;;;;;5114228;28;20252;-76
2022/04/27 08:14:08;;;;;;;10.13;6.47;;;21.00;99.90;;;;;;5113835;28;20198;-75
2022/04/27 08:16:34;;;;;;;8.75;7.00;;;20.80;99.90;;;;;;5113758;28;20225;-76
2022/04/27 08:19:00;;;;;;;7.22;6.57;;;21.10;99.90;;;;;;5102437;27;20171;-74
2022/04/27 08:21:27;;;;;;;10.18;6.20;;;20.60;99.90;;;;;;5112362;28;20186;-76
2022/04/27 08:23:53;;;;;;;10.43;5.47;;;19.40;99.90;;;;;;5113091;28;20242;-76
2022/04/27 08:26:19;;;;;;;7.35;6.15;;;19.90;99.90;;;;;;5113612;28;20199;-76
2022/04/27 08:28:45;;;;;;;9.57;6.07;;;19.20;99.90;;;;;;5112206;28;20312;-77
2022/04/27 08:31:13;;;;;;;9.00;6.65;;;19.50;99.90;;;;;;5113375;28;20524;-76
2022/04/27 08:33:38;;;;;;;7.10;6.40;;;20.50;99.90;;;;;;5113885;28;20240;-75
2022/04/27 08:36:05;;;;;;;7.03;5.85;;;20.10;99.90;;;;;;5113706;28;20167;-75
2022/04/27 08:38:33;;;;;;;8.95;5.85;;;19.80;99.90;;;;;;5113699;28;20167;-77
2022/04/27 08:40:59;;;;;;;9.43;5.85;;;20.10;99.90;;;;;;5113225;28;20215;-75
2022/04/27 08:43:26;;;;;;;6.82;6.20;;;19.70;99.90;;;;;;5113857;28;20521;-76
2022/04/27 08:45:54;;;;;;;9.63;6.55;;;17.90;99.90;;;;;;5112909;28;20163;-75
2022/04/27 08:48:21;;;;;;;7.25;6.25;;;17.60;99.90;;;;;;5112637;28;20167;-76
2022/04/27 08:50:48;;;;;;;6.07;5.47;;;18.30;99.90;;;;;;5113151;28;20178;-76
2022/04/27 08:53:14;;;;;;;7.78;5.50;;;19.30;99.90;;;;;;5113671;28;20220;-75
2022/04/27 08:55:40;;;;;;;7.38;5.47;;;20.10;99.90;;;;;;5113335;28;20168;-75
2022/04/27 08:58:07;;;;;;;8.40;5.40;;;20.80;99.90;;;;;;5113206;28;20248;-75
2022/04/27 09:00:32;;;;;;;7.53;4.57;;;21.90;99.90;;;;;;5112925;28;20187;-76
2022/04/27 09:03:34;;;;;;;6.70;5.00;;;22.80;99.90;;;;;;5113576;28;20178;-75
2022/04/27 09:06:04;;;;;;;5.10;4.60;;;24.50;99.90;;;;;;5113268;28;20251;-75
2022/04/27 09:08:48;;;;;;;7.13;4.80;;;22.80;99.90;;;;;;5113031;28;20583;-76
2022/04/27 09:11:25;;;;;;;5.10;4.57;;;22.60;99.90;;;;;;5113300;28;20653;-75
2022/04/27 09:13:56;;;;;;;6.38;4.65;;;22.40;99.90;;;;;;5112961;28;20507;-75
2022/04/27 09:16:24;;;;;;;5.85;5.25;;;23.30;99.90;;;;;;5113184;28;20228;-76
2022/04/27 09:21:53;;;;;;;7.65;5.38;;;22.90;99.90;;;;;;5113372;28;20190;-76
2022/04/27 09:24:19;;;;;;;7.05;5.22;;;22.70;99.90;;;;;;5113144;28;20171;-77
2022/04/27 09:26:45;;;;;;;7.78;4.82;;;24.00;99.90;;;;;;5112961;28;20199;-77
2022/04/27 09:29:26;;;;;;;6.53;5.30;;;25.60;95.30;;;;;;5113008;28;20171;-77
2022/04/27 09:31:56;;;;;;;8.95;5.47;;;25.70;91.30;;;;;;5113133;28;20247;-77
2022/04/27 09:34:29;;;;;;;8.73;5.25;;;23.70;89.40;;;;;;5112929;28;20193;-77
2022/04/27 09:37:04;;;;;;;7.28;4.95;;;24.20;91.60;;;;;;5113505;28;20646;-77
2022/04/27 09:39:30;;;;;;;5.38;4.88;;;24.20;90.30;;;;;;5113507;28;20175;-77
2022/04/27 09:42:04;;;;;;;6.47;5.05;;;24.10;83.20;;;;;;5112858;28;20167;-78
2022/04/27 09:44:35;;;;;;;7.40;5.32;;;23.60;85.60;;;;;;5113184;28;20286;-78
2022/04/27 09:47:06;;;;;;;7.38;5.50;;;23.40;86.10;;;;;;5112762;28;20222;-78
2022/04/27 09:49:36;;;;;;;5.38;4.88;;;22.60;82.00;;;;;;5112426;28;20179;-78
2022/04/27 09:52:04;;;;;;;6.28;5.22;;;21.50;91.60;;;;;;5112183;28;20201;-77
2022/04/27 09:54:36;;;;;;;8.48;6.22;;;21.50;91.60;;;;;;5112617;28;20163;-77
2022/04/27 09:57:04;;;;;;;6.20;5.43;;;21.50;91.50;;;;;;5111986;28;20223;-78
2022/04/27 09:59:35;;;;;;;6.30;5.70;;;21.30;92.90;;;;;;5115220;28;20186;-78
2022/04/27 10:02:05;;;;;;;6.93;5.85;;;20.70;93.70;;;;;;5116824;28;20171;-78
2022/04/27 10:04:31;;;;;;;8.43;6.20;;;20.50;93.80;;;;;;5117120;28;20661;-77
2022/04/27 10:06:58;;;;;;;7.32;6.22;;;19.80;96.70;;;;;;5116482;28;20218;-78
2022/04/27 10:09:26;;;;;;;7.40;5.80;;;19.50;99.90;;;;;;5116438;28;20159;-78
2022/04/27 10:11:54;;;;;;;6.13;5.45;;;20.60;99.90;;;;;;5116153;28;20178;-80
2022/04/27 10:14:21;;;;;;;9.20;6.13;;;21.80;97.50;;;;;;5116815;28;20174;-79
2022/04/27 10:16:48;;;;;;;10.57;5.97;;;22.00;95.20;;;;;;5116735;28;20190;-78
2022/04/27 10:19:15;;;;;;;11.32;6.05;;;22.50;93.50;;;;;;5116218;28;20240;-78
2022/04/27 10:21:57;;;;;;;5.78;5.20;;;23.90;88.30;;;;;;5116412;28;20184;-77
2022/04/27 10:24:35;;;;;;;7.82;6.22;;;24.00;87.10;;;;;;5116318;28;20265;-79
2022/04/27 10:27:25;;;;;;;6.53;5.88;;;22.00;86.80;;;;;;5115855;28;20221;-79
2022/04/27 10:29:52;;;;;;;6.43;5.57;;;20.90;92.60;;;;;;5116088;28;20246;-78
2022/04/27 10:32:46;;;;;;;6.75;6.15;;;21.10;99.90;;;;;;5115728;28;20557;-78
2022/04/27 10:35:12;;;;;;;7.93;6.80;;;21.80;94.10;;;;;;5115995;28;20171;-78
2022/04/27 10:37:47;;;;;;;9.27;6.40;;;23.00;90.80;;;;;;5115840;28;20636;-78
2022/04/27 10:40:26;;;;;;;6.63;6.05;;;22.00;90.70;;;;;;5115472;28;20208;-78
2022/04/27 10:42:51;;;;;;;5.90;5.40;;;22.60;90.60;;;;;;5116479;28;20182;-80
2022/04/27 10:45:23;;;;;;;8.63;6.25;;;22.20;87.00;;;;;;5116339;28;20258;-79
2022/04/27 10:47:49;;;;;;;7.80;6.00;;;22.10;83.30;;;;;;5115924;28;20673;-80
2022/04/27 10:50:23;;;;;;;7.18;6.47;;;23.10;86.70;;;;;;5116507;28;20493;-79
2022/04/27 10:52:52;;;;;;;8.77;6.53;;;23.00;80.60;;;;;;5115536;28;20182;-80
2022/04/27 10:55:38;;;;;;;11.65;6.63;;;21.90;90.40;;;;;;5115621;28;20155;-79
2022/04/27 10:58:13;;;;;;;7.20;6.40;;;22.90;87.20;;;;;;5115191;28;20225;-79
2022/04/27 11:00:57;;;;;;;7.25;6.55;;;24.10;79.30;;;;;;5115850;28;20614;-79
2022/04/27 11:03:28;;;;;;;8.73;6.55;;;23.20;77.40;;;;;;5097229;28;20613;-80
2022/04/27 11:06:00;;;;;;;7.10;6.40;;;23.10;80.70;;;;;;5115125;28;20269;-79
2022/04/27 11:08:52;;;;;;;8.52;7.35;;;23.20;81.80;;;;;;5115363;28;20171;-80
2022/04/27 11:11:21;;;;;;;7.47;6.85;;;22.40;97.40;;;;;;5114107;28;20171;-80
2022/04/27 11:13:48;;;;;;;8.35;6.90;;;22.10;81.50;;;;;;5115247;28;20167;-81
2022/04/27 11:16:13;;;;;;;9.23;7.63;;;22.80;79.00;;;;;;5115957;28;20199;-81
2022/04/27 11:18:55;;;;;;;8.68;6.43;;;23.90;76.00;;;;;;5115414;28;20163;-81
2022/04/27 11:21:22;;;;;;;7.05;6.35;;;24.70;72.80;;;;;;5115444;28;20171;-81
2022/04/27 11:23:48;;;;;;;10.52;7.15;;;23.70;65.00;;;;;;5114370;28;20167;-79
2022/04/27 11:26:14;;;;;;;8.13;7.32;;;21.10;90.10;;;;;;5115371;28;20235;-78
2022/04/27 11:28:43;;;;;;;10.30;7.78;;;19.70;89.80;;;;;;5115023;28;20232;-78
2022/04/27 11:31:09;;;;;;;8.40;7.70;;;18.80;92.80;;;;;;5115189;28;20536;-78
2022/04/27 11:33:41;;;;;;;8.60;7.60;;;18.50;95.90;;;;;;5114966;28;20210;-78
2022/04/27 11:36:27;;;;;;;7.90;7.20;;;18.80;99.90;;;;;;5115097;28;20258;-80
2022/04/27 11:38:56;;;;;;;8.40;7.47;;;19.20;99.90;;;;;;5114139;28;20198;-78
2022/04/27 11:41:24;;;;;;;8.82;7.85;;;19.10;96.20;;;;;;5114218;28;20170;-77
2022/04/27 11:43:54;;;;;;;9.30;8.40;;;19.00;99.90;;;;;;5114792;28;20163;-76
2022/04/27 11:46:20;;;;;;;8.68;7.82;;;18.80;99.90;;;;;;5114417;28;20207;-78
2022/04/27 11:48:49;;;;;;;8.90;8.00;;;19.20;99.90;;;;;;5114963;28;20529;-78
2022/04/27 11:51:15;;;;;;;9.80;8.13;;;19.10;99.90;;;;;;5114729;28;20167;-74
2022/04/27 11:53:43;;;;;;;9.55;7.88;;;19.50;99.90;;;;;;5114154;28;20575;-75
2022/04/27 11:56:09;;;;;;;11.02;8.52;;;20.10;99.90;;;;;;5114637;28;20641;-76
2022/04/27 11:58:34;;;;;;;10.68;8.30;;;20.70;99.90;;;;;;5114136;28;20219;-74
2022/04/27 12:01:01;;;;;;;10.38;8.88;;;18.30;99.90;;;;;;5096022;28;20179;-76
2022/04/27 12:03:27;;;;;;;9.18;8.38;;;18.20;99.90;;;;;;5114109;28;20603;-73
2022/04/27 12:05:54;;;;;;;10.82;8.70;;;18.30;99.90;;;;;;5114072;28;20175;-73
2022/04/27 12:08:21;;;;;;;11.63;8.68;;;18.40;99.90;;;;;;5114160;28;20180;-74
2022/04/27 12:10:49;;;;;;;10.75;9.68;;;18.40;99.90;;;;;;5114494;28;20159;-74
2022/04/27 12:13:16;;;;;;;13.02;8.60;;;17.60;99.90;;;;;;5114304;28;20175;-73
2022/04/27 12:15:52;;;;;;;10.23;9.10;;;17.90;99.90;;;;;;5114621;28;20168;-73
2022/04/27 12:18:19;;;;;;;10.57;9.43;;;18.50;99.90;;;;;;5113710;28;20181;-74
2022/04/27 12:20:46;;;;;;;11.02;8.63;;;18.70;99.90;;;;;;5114020;28;20167;-74
2022/04/27 12:23:20;;;;;;;11.30;9.30;;;19.00;99.90;;;;;;5112717;28;20168;-73
2022/04/27 12:25:54;;;;;;;10.07;8.65;;;18.80;99.90;;;;;;5114777;28;20200;-74
2022/04/27 12:28:21;;;;;;;9.50;8.52;;;18.40;99.90;;;;;;5113245;28;20167;-75
2022/04/27 12:30:51;;;;;;;10.10;9.13;;;17.60;99.90;;;;;;5114410;28;20219;-74
2022/04/27 12:33:19;;;;;;;10.50;9.40;;;17.30;99.90;;;;;;5113429;28;20198;-74
2022/04/27 12:38:31;;;;;;;17.33;9.40;;;17.40;99.90;;;;;;5114043;28;20195;-74
2022/04/27 12:40:59;;;;;;;13.10;9.67;;;17.50;99.90;;;;;;5113850;28;20539;-76
2022/04/27 12:43:26;;;;;;;10.47;9.37;;;17.60;99.90;;;;;;5113318;28;20163;-75
2022/04/27 12:46:05;;;;;;;11.03;9.70;;;17.70;99.90;;;;;;5095835;28;20202;-75
2022/04/27 12:48:31;;;;;;;11.13;9.63;;;17.70;99.90;;;;;;5113380;28;20175;-75
2022/04/27 12:51:00;;;;;;;9.93;8.80;;;18.10;99.90;;;;;;5113473;28;20159;-74
2022/04/27 12:53:25;;;;;;;10.53;9.43;;;18.60;99.90;;;;;;5113252;28;20156;-75
2022/04/27 12:56:07;;;;;;;12.23;9.83;;;18.30;99.90;;;;;;5113752;28;20167;-74
2022/04/27 12:58:33;;;;;;;12.90;10.00;;;18.40;99.90;;;;;;5112944;28;20218;-74
2022/04/27 13:00:58;;;;;;;12.88;8.95;;;18.10;99.90;;;;;;5112921;28;20167;-74